Time;durP1;ratioP1;P1;durP2;ratioP2;P2;SDS_P1;SDS_P2;PMS_P1;PMS_P2;Temp;Humidity;BMP_temperature;BMP_pressure;BME280_temperature;BME280_humidity;BME280_pressure;Samples;Min_cycle;Max_cycle;Signal;HPM_P1;HPM_P2
2022/01/01 00:00:47;;;;;;;60.05;30.15;;;;;;;11.75;92.39;102300.81;5030505;28;20064;-81
2022/01/01 00:03:12;;;;;;;57.83;33.95;;;;;;;11.75;92.33;102303.47;5030308;28;20025;-80
2022/01/01 00:05:38;;;;;;;48.25;26.25;;;;;;;11.74;92.64;102307.00;5030463;28;20045;-80
2022/01/01 00:08:05;;;;;;;51.13;23.95;;;;;;;11.75;92.47;102299.94;5030645;28;20052;-81
2022/01/01 00:10:32;;;;;;;49.22;27.00;;;;;;;11.75;92.58;102314.09;5030814;28;20044;-81
2022/01/01 00:12:58;;;;;;;47.05;22.90;;;;;;;11.76;93.11;102317.63;5030473;28;20115;-80
2022/01/01 00:15:23;;;;;;;54.40;20.83;;;;;;;11.76;92.72;102318.50;5030712;28;20037;-80
2022/01/01 00:17:49;;;;;;;49.85;20.48;;;;;;;11.77;92.92;102306.13;5028958;28;20048;-80
2022/01/01 00:20:15;;;;;;;39.78;18.65;;;;;;;11.79;92.74;102323.81;5030331;28;20125;-80
2022/01/01 00:22:41;;;;;;;38.95;17.10;;;;;;;11.76;92.96;102323.81;5030474;28;20082;-80
2022/01/01 00:25:08;;;;;;;39.10;18.15;;;;;;;11.77;92.91;102325.59;5030230;28;20391;-80
2022/01/01 00:27:34;;;;;;;47.40;16.77;;;;;;;11.78;92.99;102329.13;5029167;28;20053;-81
2022/01/01 00:30:00;;;;;;;51.75;18.35;;;;;;;11.77;93.05;102320.28;5029118;28;20033;-81
2022/01/01 00:32:26;;;;;;;47.25;18.13;;;;;;;11.78;93.07;102326.47;5031733;28;20080;-81
2022/01/01 00:34:51;;;;;;;37.47;17.73;;;;;;;11.76;93.33;102318.50;5032725;28;20381;-81
2022/01/01 00:37:17;;;;;;;39.85;17.15;;;;;;;11.78;93.21;102324.69;5034087;28;20487;-80
2022/01/01 00:39:43;;;;;;;42.05;18.45;;;;;;;11.77;93.18;102322.94;5032635;28;20481;-80
2022/01/01 00:42:09;;;;;;;47.53;18.88;;;;;;;11.80;92.96;102320.28;5033982;28;20045;-80
2022/01/01 00:44:34;;;;;;;42.38;17.42;;;;;;;11.81;92.99;102322.03;5015790;28;20489;-80
2022/01/01 00:47:00;;;;;;;46.78;18.15;;;;;;;11.81;92.79;102323.81;5033943;28;20040;-81
2022/01/01 00:49:26;;;;;;;48.95;19.27;;;;;;;11.82;92.80;102313.19;5034845;28;20521;-81
2022/01/01 00:51:51;;;;;;;43.83;17.58;;;;;;;11.80;93.00;102312.31;5053520;28;20046;-80
2022/01/01 00:54:17;;;;;;;38.22;17.13;;;;;;;11.82;92.86;102314.97;5053567;28;20111;-80
2022/01/01 00:56:42;;;;;;;41.47;16.80;;;;;;;11.81;92.72;102308.75;5052426;28;20029;-81
2022/01/01 00:59:08;;;;;;;39.03;16.83;;;;;;;11.80;92.91;102312.31;5052221;28;20484;-81
2022/01/01 01:01:33;;;;;;;42.42;16.15;;;;;;;11.81;92.66;102316.72;5053879;28;20040;-81
2022/01/01 01:03:59;;;;;;;43.92;17.25;;;;;;;11.82;92.70;102329.13;5052179;28;20102;-80
2022/01/01 01:06:24;;;;;;;42.08;16.05;;;;;;;11.79;92.71;102312.31;5053309;28;20116;-81
2022/01/01 01:08:52;;;;;;;37.95;15.35;;;;;;;11.79;92.86;102315.88;5052248;28;20136;-81
2022/01/01 01:11:17;;;;;;;45.85;16.13;;;;;;;11.79;92.81;102307.91;5053175;28;20057;-80
2022/01/01 01:13:45;;;;;;;42.53;14.80;;;;;;;11.77;92.61;102317.63;5053072;28;20029;-80
2022/01/01 01:16:11;;;;;;;40.40;14.60;;;;;;;11.78;92.77;102321.16;5051867;28;20545;-80
2022/01/01 01:18:36;;;;;;;44.10;16.15;;;;;;;11.78;92.50;102318.50;5053274;28;20132;-81
2022/01/01 01:21:02;;;;;;;37.60;14.55;;;;;;;11.76;92.93;102320.28;5035032;28;20110;-80
2022/01/01 01:23:28;;;;;;;43.47;15.60;;;;;;;11.77;92.58;102324.69;5051569;28;20041;-81
2022/01/01 01:25:55;;;;;;;38.05;14.57;;;;;;;11.75;92.68;102330.03;5051925;28;20025;-81
2022/01/01 01:28:21;;;;;;;42.75;15.20;;;;;;;11.74;92.69;102332.66;5052932;28;20067;-80
2022/01/01 01:30:47;;;;;;;41.30;16.17;;;;;;;11.73;92.76;102331.78;5031377;28;20083;-80
2022/01/01 01:33:12;;;;;;;40.30;15.98;;;;;;;11.73;92.48;102338.88;5014992;28;20136;-80
2022/01/01 01:35:38;;;;;;;47.17;15.15;;;;;;;11.72;92.92;102332.69;5032697;28;20049;-81
2022/01/01 01:38:04;;;;;;;41.88;15.27;;;;;;;11.72;92.92;102331.78;5032812;28;20057;-80
2022/01/01 01:40:30;;;;;;;36.40;13.93;;;;;;;11.70;93.11;102329.16;5014661;28;20486;-80
2022/01/01 01:42:57;;;;;;;40.35;16.48;;;;;;;11.71;93.07;102336.22;5014568;28;20111;-80
2022/01/01 01:45:27;;;;;;;43.45;14.40;;;;;;;11.70;92.91;102337.13;5031611;28;20429;-81
2022/01/01 01:47:52;;;;;;;41.20;14.20;;;;;;;11.70;92.79;102339.78;5032842;28;20117;-80
2022/01/01 01:50:19;;;;;;;46.78;13.90;;;;;;;11.67;93.14;102358.34;5031190;28;20399;-79
2022/01/01 01:52:49;;;;;;;46.90;14.82;;;;;;;11.65;93.58;102357.47;5031379;28;20493;-80
2022/01/01 01:55:15;;;;;;;47.97;14.05;;;;;;;11.65;93.46;102352.16;5032736;28;20033;-80
2022/01/01 01:57:41;;;;;;;46.85;15.52;;;;;;;11.66;93.74;102361.88;5032473;28;20034;-81
2022/01/01 02:00:22;;;;;;;36.25;12.70;;;;;;;11.67;93.46;102358.34;5050072;28;20106;-80
2022/01/01 02:02:48;;;;;;;;;;;;;;;11.71;93.34;102362.75;5051246;28;20068;-79
2022/01/01 02:05:13;;;;;;;42.28;13.43;;;;;;;11.69;93.27;102371.59;5050953;28;19944;-81
2022/01/01 02:07:40;;;;;;;39.40;13.90;;;;;;;11.66;93.94;102356.56;5051178;28;20531;-81
2022/01/01 02:10:06;;;;;;;37.30;12.55;;;;;;;11.66;93.96;102353.91;5050881;28;20045;-80
2022/01/01 02:12:33;;;;;;;33.33;12.25;;;;;;;11.68;94.04;102344.19;5050970;28;20017;-80
2022/01/01 02:17:24;;;;;;;37.92;12.18;;;;;;;11.69;94.20;102356.56;5052252;28;20056;-80
2022/01/01 02:19:55;;;;;;;32.85;11.93;;;;;;;11.67;94.39;102352.16;5050629;28;20621;-80
2022/01/01 02:22:22;;;;;;;35.47;11.73;;;;;;;11.67;94.51;102353.06;5050521;28;20108;-80
2022/01/01 02:24:47;;;;;;;31.65;11.55;;;;;;;11.67;94.65;102344.19;5051808;28;20487;-79
2022/01/01 02:27:13;;;;;;;29.27;11.68;;;;;;;11.66;94.52;102345.09;5033892;28;20044;-80
2022/01/01 02:29:39;;;;;;;37.58;10.65;;;;;;;11.67;94.73;102337.13;5051477;28;20041;-80
2022/01/01 02:32:13;;;;;;;33.15;10.82;;;;;;;11.69;94.96;102345.94;5050565;28;20037;-80
2022/01/01 02:34:40;;;;;;;24.70;10.88;;;;;;;11.68;94.78;102352.16;5051876;28;20037;-80
2022/01/01 02:37:05;;;;;;;37.70;11.68;;;;;;;11.65;95.41;102345.94;5050153;28;20025;-80
2022/01/01 02:39:31;;;;;;;32.10;11.88;;;;;;;11.63;95.46;102344.19;5051435;28;20035;-80
2022/01/01 02:41:57;;;;;;;28.30;10.55;;;;;;;11.67;95.37;102347.75;5050788;28;20035;-79
2022/01/01 02:44:25;;;;;;;27.95;9.80;;;;;;;11.69;95.26;102347.72;5050106;28;20618;-79
2022/01/01 02:46:55;;;;;;;37.58;11.02;;;;;;;11.67;95.55;102338.88;5049805;28;20068;-79
2022/01/01 02:49:20;;;;;;;30.58;10.95;;;;;;;11.69;95.03;102345.06;5049959;28;20060;-80
2022/01/01 02:51:46;;;;;;;39.53;11.40;;;;;;;11.69;95.11;102330.03;5049649;28;20068;-81
2022/01/01 02:54:11;;;;;;;30.80;10.07;;;;;;;11.69;94.77;102326.50;5032291;28;20029;-81
2022/01/01 02:56:37;;;;;;;24.42;10.50;;;;;;;11.70;94.88;102321.19;5049897;28;20045;-80
2022/01/01 02:59:03;;;;;;;32.53;11.00;;;;;;;11.70;94.73;102321.19;5049392;28;20047;-80
2022/01/01 03:01:29;;;;;;;30.23;9.93;;;;;;;11.69;94.71;102311.44;5051067;28;20029;-78
2022/01/01 03:03:54;;;;;;;28.48;10.55;;;;;;;11.67;94.98;102310.59;5050893;28;20040;-78
2022/01/01 03:06:20;;;;;;;30.92;10.57;;;;;;;11.69;95.08;102316.75;5051098;28;20456;-78
2022/01/01 03:08:47;;;;;;;35.35;11.10;;;;;;;11.67;94.94;102301.72;5049421;28;20045;-78
2022/01/01 03:11:13;;;;;;;26.42;10.63;;;;;;;11.68;94.94;102315.00;5032782;28;20495;-78
2022/01/01 03:13:39;;;;;;;28.73;11.00;;;;;;;11.66;94.97;102316.78;5039548;28;20129;-78
2022/01/01 03:16:07;;;;;;;29.98;10.63;;;;;;;11.66;95.16;102324.72;5032054;28;20067;-78
2022/01/01 03:18:33;;;;;;;29.38;10.00;;;;;;;11.66;94.95;102327.38;5041344;28;20048;-78
2022/01/01 03:20:58;;;;;;;29.30;10.77;;;;;;;11.67;94.88;102317.66;5022618;28;20377;-78
2022/01/01 03:23:23;;;;;;;34.35;11.68;;;;;;;11.66;94.83;102323.84;5039092;28;20049;-78
2022/01/01 03:25:49;;;;;;;30.38;10.77;;;;;;;11.66;94.83;102315.91;5025142;28;20138;-78
2022/01/01 03:28:15;;;;;;;25.10;10.30;;;;;;;11.68;94.37;102315.00;5039713;28;20033;-78
2022/01/01 03:30:40;;;;;;;26.77;10.30;;;;;;;11.69;94.46;102311.44;5031224;28;20021;-81
2022/01/01 03:33:06;;;;;;;29.63;11.63;;;;;;;11.68;94.30;102320.31;5041401;28;20037;-81
2022/01/01 03:35:31;;;;;;;28.35;11.85;;;;;;;11.69;94.45;102316.75;5024607;28;20079;-81
2022/01/01 03:37:57;;;;;;;23.70;11.00;;;;;;;11.70;94.55;102312.34;5038642;28;20056;-82
2022/01/01 03:40:22;;;;;;;26.80;10.60;;;;;;;11.71;94.15;102316.75;5031203;28;20044;-81
2022/01/01 03:42:47;;;;;;;28.30;11.45;;;;;;;11.69;94.22;102310.56;5029647;28;20139;-81
2022/01/01 03:45:13;;;;;;;27.52;11.10;;;;;;;11.68;93.92;102316.78;5037560;28;20121;-82
2022/01/01 03:47:38;;;;;;;24.90;10.25;;;;;;;11.66;93.92;102313.25;5030667;28;20033;-81
2022/01/01 03:50:04;;;;;;;32.60;11.75;;;;;;;11.65;94.00;102303.50;5023115;28;20120;-82
2022/01/01 03:52:30;;;;;;;26.52;11.73;;;;;;;11.62;94.09;102299.09;5038944;28;20357;-81
2022/01/01 03:54:55;;;;;;;27.88;10.80;;;;;;;11.60;94.20;102296.44;5038365;28;20024;-82
2022/01/01 03:57:21;;;;;;;27.08;11.30;;;;;;;11.61;94.16;102299.97;5048190;28;20035;-81
2022/01/01 03:59:47;;;;;;;22.15;9.85;;;;;;;11.62;93.90;102300.00;5032810;28;20048;-81
2022/01/01 04:02:13;;;;;;;25.92;10.75;;;;;;;11.62;93.91;102301.72;5028760;28;20044;-81
2022/01/01 04:04:39;;;;;;;31.13;12.73;;;;;;;11.67;93.40;102299.06;5012583;28;20045;-82
2022/01/01 04:07:04;;;;;;;24.55;11.05;;;;;;;11.65;93.79;102312.38;5031209;28;20037;-82
2022/01/01 04:09:30;;;;;;;23.70;11.65;;;;;;;11.65;93.50;102312.38;5032897;28;20452;-81
2022/01/01 04:11:55;;;;;;;34.47;11.43;;;;;;;11.66;93.23;102299.97;5032959;28;20507;-82
2022/01/01 04:14:21;;;;;;;31.27;14.40;;;;;;;11.66;93.24;102295.53;5034228;28;20029;-81
2022/01/01 04:16:47;;;;;;;33.78;18.00;;;;;;;11.65;93.19;102303.50;5032965;28;20037;-81
2022/01/01 04:19:13;;;;;;;25.10;11.30;;;;;;;11.65;93.03;102307.06;5032855;28;20045;-81
2022/01/01 04:21:39;;;;;;;25.92;10.55;;;;;;;11.66;93.12;102305.28;5032736;28;20184;-81
2022/01/01 04:24:05;;;;;;;26.20;9.50;;;;;;;11.67;93.02;102294.69;5032849;28;20034;-81
2022/01/01 04:26:30;;;;;;;21.98;9.43;;;;;;;11.67;92.36;102291.09;5032600;28;20504;-81
2022/01/01 04:28:56;;;;;;;22.33;8.98;;;;;;;11.67;92.37;102301.72;5033178;28;20041;-81
2022/01/01 04:31:21;;;;;;;26.27;9.60;;;;;;;11.69;92.12;102299.97;5052775;28;20108;-81
2022/01/01 04:33:47;;;;;;;24.55;9.75;;;;;;;11.68;92.13;102300.84;5053825;28;20040;-81
2022/01/01 04:36:13;;;;;;;23.63;9.65;;;;;;;11.69;92.44;102306.13;5052542;28;20028;-81
2022/01/01 04:38:40;;;;;;;23.25;10.35;;;;;;;11.68;92.23;102304.38;5053884;28;20033;-81
2022/01/01 04:41:12;;;;;;;23.02;8.45;;;;;;;11.70;92.23;102307.03;5053009;28;20406;-81
2022/01/01 04:43:40;;;;;;;25.90;9.23;;;;;;;11.69;92.09;102306.13;5054107;28;20052;-81
2022/01/01 04:46:06;;;;;;;26.25;8.40;;;;;;;11.68;91.75;102315.00;5054513;28;20044;-82
2022/01/01 04:48:32;;;;;;;22.35;9.20;;;;;;;11.70;91.57;102309.69;5054295;28;20052;-77
2022/01/01 04:50:57;;;;;;;20.83;8.20;;;;;;;11.69;91.69;102307.91;5052511;28;20037;-77
2022/01/01 04:53:23;;;;;;;19.50;8.77;;;;;;;11.70;91.88;102315.00;5053827;28;20040;-78
2022/01/01 04:55:49;;;;;;;22.75;8.18;;;;;;;11.71;91.67;102314.97;5052575;28;20496;-78
2022/01/01 04:58:16;;;;;;;15.45;7.55;;;;;;;11.71;91.26;102308.81;5053908;28;20028;-79
2022/01/01 05:00:41;;;;;;;23.08;8.90;;;;;;;11.72;91.73;102310.56;5053697;28;20077;-79
2022/01/01 05:03:07;;;;;;;18.27;8.15;;;;;;;11.69;91.60;102323.84;5052370;28;20100;-79
2022/01/01 05:05:32;;;;;;;27.27;9.18;;;;;;;11.70;91.38;102320.31;5052099;28;20037;-78
2022/01/01 05:07:58;;;;;;;25.20;7.57;;;;;;;11.71;91.28;102316.75;5019261;28;20075;-77
2022/01/01 05:10:26;;;;;;;20.88;8.15;;;;;;;11.71;91.14;102325.59;5052239;28;20040;-77
2022/01/01 05:12:52;;;;;;;20.80;8.18;;;;;;;11.72;91.33;102323.81;5035701;28;20507;-78
2022/01/01 05:15:18;;;;;;;20.23;7.60;;;;;;;11.69;91.15;102327.38;5052127;28;20037;-77
2022/01/01 05:17:44;;;;;;;27.25;8.05;;;;;;;11.72;91.07;102324.72;5034870;28;20029;-77
2022/01/01 05:20:10;;;;;;;21.10;8.27;;;;;;;11.69;91.10;102327.38;5052081;28;20084;-77
2022/01/01 05:22:35;;;;;;;25.63;9.15;;;;;;;11.70;90.97;102328.28;5035554;28;20036;-78
2022/01/01 05:25:01;;;;;;;21.10;7.57;;;;;;;11.69;91.17;102322.06;5053431;28;20107;-78
2022/01/01 05:27:27;;;;;;;21.55;7.95;;;;;;;11.69;91.02;102326.50;5052100;28;20028;-77
2022/01/01 05:29:53;;;;;;;16.05;7.38;;;;;;;11.70;91.21;102330.94;5051896;28;20116;-77
2022/01/01 05:32:19;;;;;;;20.27;7.70;;;;;;;11.67;91.06;102328.25;5018721;28;20025;-77
2022/01/01 05:34:44;;;;;;;27.40;7.90;;;;;;;11.68;90.95;102332.69;5035224;28;20132;-78
2022/01/01 05:37:09;;;;;;;21.63;7.90;;;;;;;11.65;90.77;102327.38;5035229;28;20033;-78
2022/01/01 05:39:35;;;;;;;22.63;8.20;;;;;;;11.65;91.02;102330.03;5052046;28;20037;-78
2022/01/01 05:42:00;;;;;;;18.83;7.40;;;;;;;11.65;91.11;102327.38;5034924;28;20120;-78
2022/01/01 05:44:26;;;;;;;22.48;8.13;;;;;;;11.64;90.83;102329.16;5051676;28;20060;-77
2022/01/01 05:46:53;;;;;;;27.35;8.02;;;;;;;11.62;90.84;102326.53;5053050;28;20120;-77
2022/01/01 05:49:19;;;;;;;22.30;7.88;;;;;;;11.65;90.92;102330.03;5034990;28;20357;-77
2022/01/01 05:51:44;;;;;;;21.42;7.28;;;;;;;11.61;90.75;102331.81;5051216;28;20063;-77
2022/01/01 05:54:10;;;;;;;27.13;8.07;;;;;;;11.62;90.46;102329.19;5052699;28;20021;-77
2022/01/01 05:56:35;;;;;;;16.25;6.85;;;;;;;11.60;90.64;102316.81;5050934;28;20033;-77
2022/01/01 05:59:01;;;;;;;22.38;7.15;;;;;;;11.60;90.44;102315.03;5042503;28;20037;-77
2022/01/01 06:01:26;;;;;;;17.40;6.88;;;;;;;11.61;90.57;102315.91;5014851;28;20036;-77
2022/01/01 06:03:52;;;;;;;21.85;6.75;;;;;;;11.60;90.13;102316.81;5031152;28;20037;-77
2022/01/01 06:06:17;;;;;;;19.98;6.47;;;;;;;11.62;90.04;102305.28;5014534;28;20037;-77
2022/01/01 06:08:43;;;;;;;17.60;6.05;;;;;;;11.62;90.01;102305.28;5032424;28;20077;-78
2022/01/01 06:11:08;;;;;;;24.63;7.05;;;;;;;11.58;89.97;102311.47;5032540;28;20033;-77
2022/01/01 06:13:34;;;;;;;18.77;6.72;;;;;;;11.58;89.98;102303.53;5030952;28;20021;-77
2022/01/01 06:15:59;;;;;;;17.10;6.15;;;;;;;11.54;89.77;102292.91;5031228;28;20449;-77
2022/01/01 06:18:24;;;;;;;26.35;6.68;;;;;;;11.53;90.04;102304.44;5014451;28;20057;-77
2022/01/01 06:20:50;;;;;;;16.13;5.85;;;;;;;11.50;89.82;102307.06;5032279;28;20045;-77
2022/01/01 06:23:15;;;;;;;20.77;6.07;;;;;;;11.53;89.39;102302.66;5014475;28;20029;-77
2022/01/01 06:25:41;;;;;;;14.77;5.85;;;;;;;11.47;89.78;102302.66;5031771;28;20046;-77
2022/01/01 06:28:06;;;;;;;14.98;5.55;;;;;;;11.43;89.71;102308.88;5030884;28;20049;-77
2022/01/01 06:30:35;;;;;;;20.73;6.18;;;;;;;11.40;89.78;102309.75;5030761;28;20650;-78
2022/01/01 06:33:09;;;;;;;14.00;5.78;;;;;;;11.35;89.54;102311.53;5030902;28;20060;-78
2022/01/01 06:35:34;;;;;;;18.83;5.78;;;;;;;11.31;89.76;102317.72;5030552;28;20365;-77
2022/01/01 06:38:00;;;;;;;17.70;5.72;;;;;;;11.30;89.63;102323.94;5032311;28;20043;-78
2022/01/01 06:40:25;;;;;;;19.33;6.38;;;;;;;11.27;89.69;102323.91;5031728;28;20059;-78
2022/01/01 06:42:51;;;;;;;19.63;6.53;;;;;;;11.26;89.94;102321.28;5013814;28;20029;-78
2022/01/01 06:45:17;;;;;;;19.27;6.07;;;;;;;11.19;90.12;102315.09;5030308;28;20144;-77
2022/01/01 06:47:42;;;;;;;17.75;5.93;;;;;;;11.18;90.11;102322.16;5013725;28;20438;-78
2022/01/01 06:50:09;;;;;;;9.98;5.30;;;;;;;11.18;90.00;102321.28;5030236;28;20037;-78
2022/01/01 06:52:34;;;;;;;17.38;5.82;;;;;;;11.17;90.18;102320.38;5031554;28;20080;-77
2022/01/01 06:55:00;;;;;;;13.00;5.20;;;;;;;11.17;90.04;102324.81;5030061;28;20072;-77
2022/01/01 06:57:25;;;;;;;18.38;5.90;;;;;;;11.16;90.03;102317.75;5031573;28;20112;-77
2022/01/01 06:59:51;;;;;;;18.95;6.18;;;;;;;11.16;90.40;102328.34;5031402;28;20029;-78
2022/01/01 07:02:16;;;;;;;13.25;5.57;;;;;;;11.18;90.13;102324.81;5030093;28;20211;-77
2022/01/01 07:04:41;;;;;;;17.10;6.30;;;;;;;11.19;89.73;102323.91;5030078;28;20036;-78
2022/01/01 07:07:08;;;;;;;17.75;5.78;;;;;;;11.18;89.91;102334.53;5013464;28;20114;-78
2022/01/01 07:09:33;;;;;;;19.88;6.20;;;;;;;11.21;89.68;102336.31;5031420;28;20041;-78
2022/01/01 07:11:59;;;;;;;21.55;6.00;;;;;;;11.22;89.34;102338.94;5012593;28;20388;-78
2022/01/01 07:14:25;;;;;;;18.45;5.53;;;;;;;11.20;89.97;102340.72;5027667;28;20045;-78
2022/01/01 07:16:51;;;;;;;15.85;4.82;;;;;;;11.21;89.50;102344.28;5012018;28;20072;-77
2022/01/01 07:19:16;;;;;;;17.10;6.10;;;;;;;11.24;89.62;102341.59;5021998;28;20033;-78
2022/01/01 07:21:42;;;;;;;20.05;6.10;;;;;;;11.22;89.51;102336.28;5050824;28;20040;-78
2022/01/01 07:24:07;;;;;;;15.38;5.63;;;;;;;11.21;89.83;102333.66;5049607;28;20120;-78
2022/01/01 07:26:33;;;;;;;13.80;4.93;;;;;;;11.22;89.60;102338.06;5032756;28;20139;-78
2022/01/01 07:28:58;;;;;;;20.58;5.85;;;;;;;11.24;89.28;102358.41;5050792;28;20047;-78
2022/01/01 07:31:24;;;;;;;17.30;5.50;;;;;;;11.25;89.69;102352.22;5049248;28;20029;-77
2022/01/01 07:33:49;;;;;;;13.50;5.10;;;;;;;11.27;89.55;102346.91;5049359;28;20044;-77
2022/01/01 07:36:15;;;;;;;17.55;5.82;;;;;;;11.29;88.90;102351.31;5050521;28;20048;-78
2022/01/01 07:38:40;;;;;;;15.25;4.85;;;;;;;11.27;89.29;102349.56;5050603;28;20158;-77
2022/01/01 07:41:06;;;;;;;20.92;5.88;;;;;;;11.27;88.89;102352.19;5048689;28;20051;-78
2022/01/01 07:43:32;;;;;;;25.80;5.15;;;;;;;11.25;88.72;102356.63;5048975;28;20183;-78
2022/01/01 07:45:57;;;;;;;15.20;5.32;;;;;;;11.25;89.42;102359.28;5049178;28;20033;-78
2022/01/01 07:48:23;;;;;;;16.83;4.68;;;;;;;11.26;89.06;102367.25;5039716;28;20052;-78
2022/01/01 07:50:48;;;;;;;15.45;5.35;;;;;;;11.24;89.31;102366.34;5012692;28;20432;-78
2022/01/01 07:53:14;;;;;;;16.88;4.68;;;;;;;11.28;88.89;102373.44;5030402;28;20025;-78
2022/01/01 07:55:39;;;;;;;16.13;4.28;;;;;;;11.29;89.02;102363.69;5012694;28;20037;-78
2022/01/01 07:58:05;;;;;;;19.77;5.90;;;;;;;11.29;88.80;102366.34;5028795;28;20430;-78
2022/01/01 08:00:31;;;;;;;13.95;4.57;;;;;;;11.29;88.92;102375.19;5028964;28;20037;-78
2022/01/01 08:02:57;;;;;;;13.98;4.65;;;;;;;11.31;88.26;102377.84;5030226;28;20040;-78
2022/01/01 08:05:22;;;;;;;10.93;4.15;;;;;;;11.29;88.01;102380.50;5030256;28;20333;-78
2022/01/01 08:07:48;;;;;;;12.05;3.97;;;;;;;11.34;88.28;102378.72;5030238;28;20045;-78
2022/01/01 08:10:13;;;;;;;16.30;4.60;;;;;;;11.32;88.40;102376.94;5045868;28;20080;-78
2022/01/01 08:12:43;;;;;;;13.38;4.32;;;;;;;11.32;88.43;102369.00;5050371;28;20103;-78
2022/01/01 08:15:08;;;;;;;15.85;4.97;;;;;;;11.31;88.04;102372.53;5048743;28;20037;-78
2022/01/01 08:17:34;;;;;;;12.80;4.43;;;;;;;11.36;87.77;102376.94;5048894;28;20465;-78
2022/01/01 08:20:00;;;;;;;16.58;4.50;;;;;;;11.36;87.42;102376.94;5048677;28;20398;-77
2022/01/01 08:22:25;;;;;;;17.23;5.40;;;;;;;11.37;87.61;102369.88;5050051;28;20041;-78
2022/01/01 08:24:51;;;;;;;12.60;5.10;;;;;;;11.39;87.57;102376.06;5048737;28;20458;-77
2022/01/01 08:27:17;;;;;;;19.25;5.03;;;;;;;11.41;87.73;102371.66;5048806;28;20037;-77
2022/01/01 08:29:43;;;;;;;16.60;5.60;;;;;;;11.42;87.83;102381.38;5048645;28;20037;-78
2022/01/01 08:32:09;;;;;;;16.25;4.78;;;;;;;11.41;87.89;102374.31;5048718;28;20468;-78
2022/01/01 08:34:35;;;;;;;13.70;5.40;;;;;;;11.41;87.65;102376.97;5049879;28;20373;-78
2022/01/01 08:37:01;;;;;;;15.70;4.95;;;;;;;11.39;87.74;102366.34;5010100;28;20362;-78
2022/01/01 08:39:26;;;;;;;11.02;4.50;;;;;;;11.45;87.36;102365.47;5030236;28;20052;-77
2022/01/01 08:41:52;;;;;;;13.70;5.18;;;;;;;11.43;87.17;102369.88;5029758;28;20055;-77
2022/01/01 08:44:17;;;;;;;14.30;4.75;;;;;;;11.41;87.45;102369.00;5028165;28;20591;-77
2022/01/01 08:46:43;;;;;;;16.67;4.80;;;;;;;11.45;87.26;102373.44;5029907;28;20041;-77
2022/01/01 08:49:09;;;;;;;12.93;4.93;;;;;;;11.44;87.33;102376.94;5028256;28;20049;-77
2022/01/01 08:51:35;;;;;;;15.23;5.70;;;;;;;11.41;87.21;102379.59;5028170;28;20436;-77
2022/01/01 08:54:02;;;;;;;19.38;5.78;;;;;;;11.43;86.98;102371.66;5030999;28;20041;-77
2022/01/01 08:56:28;;;;;;;13.02;5.38;;;;;;;11.43;87.04;102377.84;5037563;28;20485;-78
2022/01/01 08:58:53;;;;;;;21.40;5.43;;;;;;;11.39;87.42;102376.06;5042068;28;20216;-77
2022/01/01 09:01:19;;;;;;;15.57;5.72;;;;;;;11.35;87.30;102377.84;5041905;28;20032;-77
2022/01/01 09:03:45;;;;;;;12.73;5.30;;;;;;;11.35;87.86;102371.63;5043181;28;20069;-78
2022/01/01 09:06:11;;;;;;;11.73;4.82;;;;;;;11.34;87.35;102373.41;5026127;28;20047;-77
2022/01/01 09:08:39;;;;;;;15.40;5.28;;;;;;;11.34;87.66;102381.38;5043506;28;20017;-77
2022/01/01 09:11:06;;;;;;;19.02;5.32;;;;;;;11.34;87.58;102373.41;5042357;28;20147;-77
2022/01/01 09:13:32;;;;;;;12.77;5.38;;;;;;;11.35;87.22;102363.69;5040211;28;20028;-77
2022/01/01 09:15:58;;;;;;;13.20;5.43;;;;;;;11.34;87.67;102356.63;5012753;28;20099;-77
2022/01/01 09:18:23;;;;;;;18.05;5.53;;;;;;;11.38;87.31;102361.94;5042365;28;20503;-77
2022/01/01 09:20:49;;;;;;;15.02;5.72;;;;;;;11.35;87.47;102358.38;5041984;28;20033;-77
2022/01/01 09:23:15;;;;;;;14.55;5.95;;;;;;;11.36;87.64;102357.50;5041907;28;20496;-77
2022/01/01 09:25:41;;;;;;;14.88;5.93;;;;;;;11.34;87.64;102352.19;5042421;28;20029;-77
2022/01/01 09:28:07;;;;;;;11.63;5.18;;;;;;;11.37;87.87;102353.97;5033021;28;20026;-77
2022/01/01 09:30:32;;;;;;;14.02;5.97;;;;;;;11.40;87.65;102356.63;5040114;28;20121;-77
2022/01/01 09:32:58;;;;;;;16.98;5.85;;;;;;;11.43;87.25;102350.44;5042915;28;20115;-77
2022/01/01 09:35:23;;;;;;;14.57;5.57;;;;;;;11.43;87.14;102351.31;5042705;28;20469;-77
2022/01/01 09:37:49;;;;;;;14.90;5.22;;;;;;;11.43;87.09;102342.47;5039915;28;20044;-77
2022/01/01 09:40:14;;;;;;;13.00;6.22;;;;;;;11.41;87.58;102353.97;5041786;28;20087;-77
2022/01/01 09:42:40;;;;;;;12.07;5.90;;;;;;;11.44;87.40;102345.13;5025277;28;20409;-77
2022/01/01 09:45:07;;;;;;;15.93;5.43;;;;;;;11.37;87.51;102344.25;5039812;28;20203;-77
2022/01/01 09:47:33;;;;;;;16.70;6.35;;;;;;;11.38;87.87;102343.38;5043127;28;20033;-77
2022/01/01 09:49:58;;;;;;;14.82;6.35;;;;;;;11.41;87.67;102347.78;5040437;28;20037;-77
2022/01/01 09:52:24;;;;;;;16.67;6.45;;;;;;;11.40;87.81;102343.38;5043661;28;20033;-77
2022/01/01 09:54:50;;;;;;;15.73;5.93;;;;;;;11.39;87.30;102346.88;5039575;28;20033;-77
2022/01/01 09:57:16;;;;;;;16.63;7.00;;;;;;;11.40;87.30;102346.03;5038566;28;20025;-77
2022/01/01 09:59:41;;;;;;;15.45;5.63;;;;;;;11.39;87.89;102341.59;5032258;28;20042;-77
2022/01/01 10:02:07;;;;;;;17.80;6.32;;;;;;;11.39;87.67;102347.75;5032416;28;20026;-77
2022/01/01 10:04:52;;;;;;;16.90;5.88;;;;;;;11.43;87.14;102342.47;5030540;28;20055;-77
2022/01/01 10:07:27;;;;;;;9.45;5.85;;;;;;;11.44;87.77;102347.75;5032173;28;20455;-77
2022/01/01 10:09:52;;;;;;;12.98;5.72;;;;;;;11.45;87.85;102333.63;5029982;28;20037;-77
2022/01/01 10:12:18;;;;;;;17.30;6.35;;;;;;;11.49;87.58;102324.75;5031797;28;20472;-77
2022/01/01 10:14:45;;;;;;;17.35;6.70;;;;;;;11.50;87.95;102320.34;5032085;28;20056;-77
2022/01/01 10:17:23;;;;;;;12.68;5.45;;;;;;;11.52;87.42;102314.16;5029875;28;20124;-77
2022/01/01 10:19:51;;;;;;;14.60;5.82;;;;;;;11.56;87.00;102312.38;5030211;28;20089;-81
2022/01/01 10:22:18;;;;;;;14.73;6.15;;;;;;;11.56;87.26;102315.91;5032098;28;20115;-81
2022/01/01 10:27:42;;;;;;;13.80;6.03;;;;;;;11.59;87.32;102304.41;5032249;28;20098;-81
2022/01/01 10:30:16;;;;;;;16.58;6.50;;;;;;;11.59;86.75;102313.25;5031068;28;20029;-81
2022/01/01 10:33:01;;;;;;;17.40;6.38;;;;;;;11.61;87.64;102303.50;5032451;28;20650;-81
2022/01/01 10:35:28;;;;;;;16.08;6.28;;;;;;;11.59;87.09;102299.09;5030858;28;20049;-81
2022/01/01 10:37:54;;;;;;;11.88;5.95;;;;;;;11.62;86.47;102296.44;5035269;28;20025;-81
2022/01/01 10:40:26;;;;;;;18.50;6.45;;;;;;;11.69;87.13;102305.25;5046572;28;20033;-81
2022/01/01 10:42:52;;;;;;;14.05;6.50;;;;;;;11.71;86.69;102292.88;5049851;28;20136;-81
2022/01/01 10:45:48;;;;;;;16.70;5.85;;;;;;;11.75;86.81;102281.38;5030561;28;20119;-81
2022/01/01 10:50:51;;;;;;;13.63;6.18;;;;;;;11.79;86.00;102267.19;5032077;28;20033;-81
2022/01/01 10:53:25;;;;;;;16.33;6.10;;;;;;;11.81;86.63;102258.31;5030869;28;20045;-80
2022/01/01 10:55:53;;;;;;;12.98;5.90;;;;;;;11.86;86.36;102268.06;5039969;28;20064;-81
2022/01/01 10:58:24;;;;;;;13.48;6.40;;;;;;;11.86;86.39;102266.28;5050582;28;20031;-81
2022/01/01 11:00:50;;;;;;;;;;;;;;;11.91;86.60;102268.94;5050295;28;20118;-81
2022/01/01 11:03:18;;;;;;;10.00;5.53;;;;;;;11.90;86.18;102273.38;5050432;28;19908;-81
2022/01/01 11:05:45;;;;;;;14.35;5.90;;;;;;;11.89;86.12;102274.25;5051685;28;20138;-81
2022/01/01 11:08:12;;;;;;;16.88;5.88;;;;;;;11.86;85.61;102266.28;5033554;28;20040;-80
2022/01/01 11:10:39;;;;;;;14.20;5.25;;;;;;;11.89;85.73;102265.41;5031167;28;20033;-81
2022/01/01 11:13:06;;;;;;;11.27;5.30;;;;;;;11.92;85.89;102276.00;5043913;28;20167;-81
2022/01/01 11:15:32;;;;;;;11.57;5.68;;;;;;;11.89;85.98;102266.28;5048869;28;20060;-81
2022/01/01 11:18:00;;;;;;;12.80;6.05;;;;;;;11.99;85.76;102260.06;5051541;28;20025;-81